Terminal Aerodrome Forecast
Issued by NWS

Current Version | Previous Version | Text Only | Print | Product List | Glossary On
Versions: 1 2 3 4 5 6 7 8 9 10 11 12 13 14
000
FTUS45 KTFX 281100
TAFHVR
TAF
KHVR 281139Z 2812/2912 06010KT P6SM SCT025 BKN050
      TEMPO 2812/2815 4SM -SN BR BKN025
     FM281500 05010KT 2SM -SN BR OVC015
     FM282200 02010KT P6SM BKN025 BKN045=

USA.gov is the U.S. government's official web portal to all federal, state and local government web resources and services.